Flight Track Log - Related Links

Times and Time Zones

All times are in EDT time to prevent confusion due to time zone crossing. See the SWA3697 flight status page for this flight to view local times or setup timezone preferences in your user account.

Time Position Orientation Groundspeed Altitude Reporting Facility
EDT Latitude Longitude Course Direction KTS MPH feet Rate Location/Type
Sun 06:34:28 PM 37.4000 -121.9667 15° North 194 223 1,700  Level Northern Cal TRACON
Sun 06:35:28 PM 37.4500 -121.9500 15° North 270 311 3,900 1,650 Climbing Northern Cal TRACON
Sun 06:36:28 PM 37.4167 -121.8833 122° Southeast 233 268 5,000 1,600 Climbing Northern Cal TRACON
Sun 06:37:28 PM 37.3667 -121.8333 142° Southeast 231 266 7,100 1,929 Climbing Northern Cal TRACON
Sun 06:38:20 PM 37.3281 -121.7856 135° Southeast 233 268 8,600 1,858 Climbing Oakland Center
Sun 06:39:21 PM 37.2689 -121.7189 138° Southeast 276 318 10,600 1,902 Climbing Oakland Center
Sun 06:40:23 PM 37.2014 -121.6422 138° Southeast 319 367 12,500 2,098 Climbing Oakland Center
Sun 06:41:24 PM 37.1272 -121.5569 137° Southeast 354 407 14,900 2,293 Climbing Oakland Center
Sun 06:42:26 PM 37.0464 -121.4678 139° Southeast 369 425 17,200 2,226 Climbing Oakland Center
Sun 06:43:28 PM 36.9650 -121.3811 140° Southeast 383 441 19,500 2,195 Climbing Oakland Center
Sun 06:44:29 PM 36.8819 -121.2914 139° Southeast 392 451 21,700 2,049 Climbing Oakland Center
Sun 06:45:31 PM 36.8011 -121.2014 138° Southeast 398 458 23,700 1,742 Climbing Oakland Center
Sun 06:46:33 PM 36.6967 -121.0897 139° Southeast 409 471 25,300 1,561 Climbing Oakland Center
Sun 06:47:34 PM 36.6053 -120.9906 139° Southeast 427 491 26,900 1,415 Climbing Oakland Center
Sun 06:48:36 PM 36.5128 -120.8894 139° Southeast 438 504 28,200 1,415 Climbing Oakland Center
Sun 06:49:37 PM 36.4167 -120.7883 140° Southeast 449 517 29,800 1,512 Climbing Oakland Center
Sun 06:50:39 PM 36.3208 -120.6853 139° Southeast 455 524 31,300 1,659 Climbing Oakland Center
Sun 06:51:40 PM 36.2283 -120.5844 139° Southeast 446 513 33,200 1,610 Climbing Oakland Center
Sun 06:52:42 PM 36.1353 -120.4903 141° Southeast 434 499 34,600 871 Climbing Oakland Center
Sun 06:53:44 PM 36.0442 -120.3931 139° Southeast 431 496 35,000 146 Climbing Oakland Center
Sun 06:54:45 PM 35.9339 -120.2767 139° Southeast 432 497 34,900  Descending Oakland Center
Sun 06:55:47 PM 35.8419 -120.1819 140° Southeast 428 493 35,000 49 Climbing Oakland Center
Sun 06:56:48 PM 35.7508 -120.0861 140° Southeast 428 493 35,000  Level Oakland Center
Sun 06:57:50 PM 35.6578 -119.9894 140° Southeast 431 496 35,000  Level Oakland Center
Sun 06:58:51 PM 35.5617 -119.9011 143° Southeast 430 495 35,000  Level Oakland Center
Sun 06:59:54 PM 35.4622 -119.8178 146° Southeast 429 494 35,000  Level Oakland Center
Sun 07:00:55 PM 35.3639 -119.7325 145° Southeast 431 496 35,000  Level Oakland Center
Sun 07:01:57 PM 35.2650 -119.6494 146° Southeast 431 496 35,000  Level Oakland Center
Sun 07:02:58 PM 35.1650 -119.5650 145° Southeast 434 499 35,000 -267 Level Oakland Center
Sun 07:04:12 PM 35.0492 -119.4636 144° Southeast 433 498 34,400 -1,897 Descending Los Angeles Center
Sun 07:05:14 PM 34.9303 -119.3628 145° Southeast 434 499 30,700 -3,145 Descending Los Angeles Center
Sun 07:06:16 PM 34.8303 -119.2786 145° Southeast 435 501 27,900 -2,244 Descending Los Angeles Center
Sun 07:07:17 PM 34.7528 -119.2125 145° Southeast 430 495 26,100 -2,177 Descending Los Angeles Center
Sun 07:08:20 PM 34.6406 -119.1178 145° Southeast 414 476 23,400 -2,400 Descending Los Angeles Center
Sun 07:09:22 PM 34.5478 -119.0442 147° Southeast 399 459 21,100 -2,419 Descending Los Angeles Center
Sun 07:10:24 PM 34.4339 -118.9747 153° Southeast 379 436 18,400 -2,419 Descending Los Angeles Center
Sun 07:11:26 PM 34.3419 -118.9197 154° Southeast 367 422 16,100 -2,032 Descending Los Angeles Center
Sun 07:12:28 PM 34.2564 -118.8661 153° Southeast 346 398 14,200 -1,984 Descending Los Angeles Center
Sun 07:13:30 PM 34.1747 -118.8178 154° Southeast 328 377 12,000 -2,032 Descending Los Angeles Center
Sun 07:14:32 PM 34.1061 -118.7492 140° Southeast 326 375 10,000 -960 Descending Los Angeles Center
Sun 07:15:35 PM 34.0578 -118.6344 117° Southeast 322 371 10,000 -720 Level Los Angeles Center
Sun 07:16:37 PM 34.0325 -118.5389 108° East 301 346 8,500 -1,366 Descending Los Angeles Center
Sun 07:17:38 PM 34.0108 -118.4586 108° East 297 342 7,200 -823 Descending Los Angeles Center
Sun 07:18:41 PM 34.0286 -118.3489 79° East 285 328 6,800 -720 Descending Los Angeles Center
Sun 07:19:43 PM 34.0408 -118.2658 80° East 259 298 5,700 -1,258 Descending Los Angeles Center
Sun 07:20:45 PM 34.0411 -118.1836 90° East 248 285 4,200 -1,210 Descending Los Angeles Center
Sun 07:21:47 PM 34.0031 -118.1314 131° Southeast 241 277 3,200 -864 Descending Los Angeles Center
Sun 07:22:50 PM 33.9742 -118.1808 235° Southwest 202 232 2,400 -484 Descending Los Angeles Center
Sun 07:23:51 PM 33.9692 -118.2400 264° West 189 217 2,200 -387 Descending Los Angeles Center
Sun 07:24:54 PM 33.9617 -118.3097 263° West 181 208 1,600 -624 Descending Los Angeles Center
Sun 07:25:56 PM 33.9578 -118.3553 264° West 155 178 900 -677 Descending Los Angeles Center
Sun 07:26:58 PM 33.9531 -118.3986 263° West 139 160 200 -677 Descending Los Angeles Center
Sun 07:28:00 PM 33.9333 -118.4000 228° Southwest  Level FlightAware Approximate
Sun 07:35:00 PM 33.9425 -118.4081 228° Southwest  Level Estimated

Login

Don't have an account? Register now (free) for customized features, flight alerts, and more!